Time;durP1;ratioP1;P1;durP2;ratioP2;P2;SDS_P1;SDS_P2;PMS_P1;PMS_P2;Temp;Humidity;BMP_temperature;BMP_pressure;BME280_temperature;BME280_humidity;BME280_pressure;Samples;Min_cycle;Max_cycle;Signal;HPM_P1;HPM_P2
2021/12/19 00:01:07;;;;;;;14.87;9.93;;;;;;;;;;5095720;28;20180;-78
2021/12/19 00:03:50;;;;;;;16.00;10.13;;;;;;;;;;5087777;28;20211;-79
2021/12/19 00:09:01;;;;;;;19.30;11.10;;;;;;;;;;5079003;28;20188;-78
2021/12/19 00:11:29;;;;;;;20.33;10.43;;;;;;;;;;5094780;28;20616;-78
2021/12/19 00:13:56;;;;;;;15.07;9.60;;;;;;;;;;5094474;28;20613;-79
2021/12/19 00:16:22;;;;;;;17.40;10.10;;;;;;;;;;5076924;28;20239;-78
2021/12/19 00:18:50;;;;;;;15.67;9.60;;;;;;;;;;5093231;28;20181;-79
2021/12/19 00:21:17;;;;;;;16.10;10.20;;;;;;;;;;5093058;28;20549;-79
2021/12/19 00:23:44;;;;;;;14.63;9.37;;;;;;;;;;5094354;28;20176;-78
2021/12/19 00:26:11;;;;;;;16.97;10.40;;;;;;;;;;5094028;28;20225;-78
2021/12/19 00:28:38;;;;;;;17.27;10.67;;;;;;;;;;5092768;28;20557;-78
2021/12/19 00:31:05;;;;;;;15.67;9.70;;;;;;;;;;5059722;28;20195;-78
2021/12/19 00:33:32;;;;;;;13.23;9.10;;;;;;;;;;5076179;28;20216;-78
2021/12/19 00:35:58;;;;;;;13.60;9.17;;;;;;;;;;5075430;28;20227;-79
2021/12/19 00:38:24;;;;;;;14.37;8.90;;;;;;;;;;5092620;28;20177;-78
2021/12/19 00:40:51;;;;;;;13.93;9.50;;;;;;;;;;5075600;28;20173;-78
2021/12/19 00:43:54;;;;;;;14.70;9.57;;;;;;;;;;5092820;28;20181;-79
2021/12/19 00:46:11;;;;;;;15.37;9.70;;;;;;;;;;5092787;28;20199;-78
2021/12/19 00:48:38;;;;;;;16.50;9.50;;;;;;;;;;5077594;28;20196;-80
2021/12/19 00:51:05;;;;;;;16.00;9.67;;;;;;;;;;5096371;28;20184;-77
2021/12/19 00:53:31;;;;;;;14.87;9.63;;;;;;;;;;5079224;28;20643;-80
2021/12/19 00:55:58;;;;;;;17.03;9.70;;;;;;;;;;5060230;28;20212;-79
2021/12/19 00:58:24;;;;;;;18.53;10.37;;;;;;;;;;5085412;28;20173;-78
2021/12/19 01:00:50;;;;;;;15.77;9.80;;;;;;;;;;5094198;28;20246;-75
2021/12/19 01:03:17;;;;;;;17.93;10.50;;;;;;;;;;5073507;28;20188;-76
2021/12/19 01:05:43;;;;;;;18.70;11.20;;;;;;;;;;5072407;28;20207;-74
2021/12/19 01:08:12;;;;;;;19.37;12.10;;;;;;;;;;5085776;28;20460;-78
2021/12/19 01:10:38;;;;;;;18.73;11.03;;;;;;;;;;5094414;28;20665;-77
2021/12/19 01:13:05;;;;;;;18.07;11.10;;;;;;;;;;5076230;28;20271;-77
2021/12/19 01:15:31;;;;;;;17.27;10.97;;;;;;;;;;5085778;28;20205;-77
2021/12/19 01:17:58;;;;;;;19.10;11.73;;;;;;;;;;5073902;28;20184;-77
2021/12/19 01:20:26;;;;;;;18.10;11.30;;;;;;;;;;5088892;28;20624;-77
2021/12/19 01:22:52;;;;;;;19.37;11.80;;;;;;;;;;5083001;28;20651;-77
2021/12/19 01:25:20;;;;;;;17.73;10.90;;;;;;;;;;5084925;28;20254;-77
2021/12/19 01:27:48;;;;;;;18.80;11.37;;;;;;;;;;5081742;28;20181;-76
2021/12/19 01:30:15;;;;;;;19.47;11.23;;;;;;;;;;5080970;28;20641;-77
2021/12/19 01:32:41;;;;;;;17.43;11.10;;;;;;;;;;5078927;28;20180;-77
2021/12/19 01:35:09;;;;;;;22.13;12.47;;;;;;;;;;5082751;28;20208;-78
2021/12/19 01:37:35;;;;;;;22.97;12.63;;;;;;;;;;5081973;28;20204;-77
2021/12/19 01:40:02;;;;;;;20.53;11.90;;;;;;;;;;5063607;28;20272;-77
2021/12/19 01:42:33;;;;;;;18.13;10.83;;;;;;;;;;5074152;28;20184;-77
2021/12/19 01:44:59;;;;;;;20.33;11.63;;;;;;;;;;5082827;28;20275;-77
2021/12/19 01:47:25;;;;;;;24.57;12.40;;;;;;;;;;5061994;28;20215;-76
2021/12/19 01:49:51;;;;;;;19.20;11.57;;;;;;;;;;5072364;28;20686;-77
2021/12/19 01:52:17;;;;;;;20.33;12.30;;;;;;;;;;5078714;28;20561;-77
2021/12/19 01:54:45;;;;;;;24.13;13.67;;;;;;;;;;5083455;28;20204;-77
2021/12/19 01:57:12;;;;;;;19.10;11.40;;;;;;;;;;5086576;28;20671;-77
2021/12/19 01:59:38;;;;;;;22.47;11.83;;;;;;;;;;5086377;28;20181;-77
2021/12/19 02:02:04;;;;;;;21.07;12.43;;;;;;;;;;5079666;28;20212;-77
2021/12/19 02:04:32;;;;;;;24.43;13.50;;;;;;;;;;5080665;28;20233;-77
2021/12/19 02:06:59;;;;;;;22.20;13.00;;;;;;;;;;5086913;28;20213;-76
2021/12/19 02:09:25;;;;;;;19.63;12.40;;;;;;;;;;5070769;28;20235;-76
2021/12/19 02:11:52;;;;;;;23.33;12.63;;;;;;;;;;5079835;28;20169;-77
2021/12/19 02:14:18;;;;;;;19.87;11.53;;;;;;;;;;5068446;28;20621;-77
2021/12/19 02:16:44;;;;;;;21.70;12.60;;;;;;;;;;5089281;28;20635;-77
2021/12/19 02:19:11;;;;;;;20.30;11.87;;;;;;;;;;5084627;28;20168;-77
2021/12/19 02:21:37;;;;;;;17.33;11.10;;;;;;;;;;5089714;28;20180;-77
2021/12/19 02:24:05;;;;;;;17.73;10.87;;;;;;;;;;5088852;28;20287;-76
2021/12/19 02:26:31;;;;;;;18.33;10.80;;;;;;;;;;5088825;28;20176;-77
2021/12/19 02:28:58;;;;;;;19.83;11.40;;;;;;;;;;5088478;28;20180;-77
2021/12/19 02:31:24;;;;;;;17.67;11.07;;;;;;;;;;5089415;28;20536;-76
2021/12/19 02:34:05;;;;;;;17.07;10.17;;;;;;;;;;5089412;28;20242;-77
2021/12/19 02:36:48;;;;;;;21.93;12.03;;;;;;;;;;5088276;28;20196;-77
2021/12/19 02:50:00;;;;;;;19.37;12.00;;;;;;;;;;5087160;28;20188;-77
2021/12/19 02:52:27;;;;;;;20.57;12.57;;;;;;;;;;5087927;28;20180;-77
2021/12/19 02:54:53;;;;;;;19.33;11.27;;;;;;;;;;5089962;28;20192;-76
2021/12/19 02:57:19;;;;;;;17.97;11.13;;;;;;;;;;5071921;28;20583;-77
2021/12/19 02:59:45;;;;;;;20.37;11.57;;;;;;;;;;5089375;28;20527;-77
2021/12/19 03:02:11;;;;;;;22.13;12.60;;;;;;;;;;5090548;28;20173;-77
2021/12/19 03:04:38;;;;;;;20.90;12.37;;;;;;;;;;5088663;28;20208;-77
2021/12/19 03:07:04;;;;;;;17.40;10.97;;;;;;;;;;5088650;28;20181;-77
2021/12/19 03:12:08;;;;;;;19.80;11.60;;;;;;;;;;5088610;28;20272;-76
2021/12/19 03:20:05;;;;;;;20.67;12.43;;;;;;;;;;5090606;28;20161;-77
2021/12/19 03:22:31;;;;;;;22.30;13.03;;;;;;;;;;5094142;28;20173;-77
2021/12/19 03:24:57;;;;;;;22.33;12.57;;;;;;;;;;5092238;28;20283;-77
2021/12/19 03:27:23;;;;;;;25.13;13.40;;;;;;;;;;5094424;28;20586;-77
2021/12/19 03:29:49;;;;;;;20.73;11.97;;;;;;;;;;5093890;28;20677;-77
2021/12/19 03:32:15;;;;;;;23.03;13.37;;;;;;;;;;5094029;28;20180;-77
2021/12/19 03:34:41;;;;;;;22.63;12.90;;;;;;;;;;5091302;28;20688;-77
2021/12/19 03:37:07;;;;;;;24.03;13.17;;;;;;;;;;5075877;28;20234;-77
2021/12/19 03:39:44;;;;;;;29.13;14.33;;;;;;;;;;5092519;28;20169;-77
2021/12/19 03:42:12;;;;;;;24.17;14.60;;;;;;;;;;5094235;28;20176;-76
2021/12/19 03:44:39;;;;;;;33.40;15.30;;;;;;;;;;5072139;28;20691;-76
2021/12/19 03:47:05;;;;;;;24.33;13.67;;;;;;;;;;5083316;28;20180;-77
2021/12/19 03:49:31;;;;;;;27.07;14.20;;;;;;;;;;5093597;28;20314;-77
2021/12/19 03:51:57;;;;;;;28.50;14.63;;;;;;;;;;5093775;28;20177;-77
2021/12/19 03:54:23;;;;;;;28.00;14.63;;;;;;;;;;5075813;28;20212;-77
2021/12/19 03:56:49;;;;;;;25.60;13.90;;;;;;;;;;5092685;28;20240;-77
2021/12/19 03:59:16;;;;;;;26.07;13.93;;;;;;;;;;5091910;28;20205;-77
2021/12/19 04:01:47;;;;;;;28.27;14.80;;;;;;;;;;5093084;28;20231;-77
2021/12/19 04:04:13;;;;;;;32.40;16.90;;;;;;;;;;5075656;28;20196;-77
2021/12/19 04:06:39;;;;;;;33.43;16.43;;;;;;;;;;5091751;28;20214;-77
2021/12/19 04:09:05;;;;;;;38.60;17.90;;;;;;;;;;5093054;28;20222;-76
2021/12/19 04:11:31;;;;;;;35.03;17.03;;;;;;;;;;5092084;28;20532;-77
2021/12/19 04:13:57;;;;;;;31.30;15.20;;;;;;;;;;5092980;28;20687;-77
2021/12/19 04:16:24;;;;;;;32.73;16.70;;;;;;;;;;5093141;28;20211;-77
2021/12/19 04:18:50;;;;;;;38.50;16.37;;;;;;;;;;5092024;28;20736;-77
2021/12/19 04:21:16;;;;;;;38.03;18.00;;;;;;;;;;5054977;28;20213;-76
2021/12/19 04:23:42;;;;;;;35.30;17.57;;;;;;;;;;5080302;28;20187;-77
2021/12/19 04:26:08;;;;;;;37.63;17.60;;;;;;;;;;5091613;28;20184;-76
2021/12/19 04:28:35;;;;;;;33.63;16.23;;;;;;;;;;5093033;28;20596;-77
2021/12/19 04:31:02;;;;;;;44.53;17.10;;;;;;;;;;5091515;28;20181;-77
2021/12/19 04:33:29;;;;;;;40.27;17.70;;;;;;;;;;5091232;28;20201;-76
2021/12/19 04:36:00;;;;;;;35.40;16.87;;;;;;;;;;5092696;28;20204;-76
2021/12/19 04:39:04;;;;;;;36.47;16.77;;;;;;;;;;5054942;28;20185;-76
2021/12/19 04:41:49;;;;;;;36.23;16.63;;;;;;;;;;5087534;28;20658;-77
2021/12/19 04:52:43;;;;;;;45.77;17.90;;;;;;;;;;5090761;28;20177;-77
2021/12/19 04:57:58;;;;;;;34.97;15.77;;;;;;;;;;5091793;28;20219;-76
2021/12/19 05:00:41;;;;;;;36.57;16.03;;;;;;;;;;5076371;28;20181;-76
2021/12/19 05:03:19;;;;;;;38.17;16.37;;;;;;;;;;5092260;28;20284;-76
2021/12/19 05:05:59;;;;;;;39.87;17.77;;;;;;;;;;5090701;28;20798;-77
2021/12/19 05:16:36;;;;;;;37.67;16.33;;;;;;;;;;5090488;28;20299;-77
2021/12/19 05:19:08;;;;;;;39.77;15.80;;;;;;;;;;5090114;28;20609;-77
2021/12/19 05:21:37;;;;;;;43.43;18.10;;;;;;;;;;5086793;28;20184;-77
2021/12/19 05:24:20;;;;;;;36.73;17.30;;;;;;;;;;5089151;28;20286;-76
2021/12/19 05:26:47;;;;;;;42.47;17.07;;;;;;;;;;5073290;28;20184;-77
2021/12/19 05:29:14;;;;;;;43.10;17.87;;;;;;;;;;5073604;28;20267;-77
2021/12/19 05:31:40;;;;;;;38.27;16.77;;;;;;;;;;5091447;28;20184;-77
2021/12/19 05:34:06;;;;;;;42.03;17.23;;;;;;;;;;5089792;28;20216;-77
2021/12/19 05:47:34;;;;;;;42.93;17.47;;;;;;;;;;5091238;28;20237;-77
2021/12/19 05:50:00;;;;;;;39.83;15.67;;;;;;;;;;5091466;28;20242;-76
2021/12/19 05:52:26;;;;;;;36.87;16.23;;;;;;;;;;5091540;28;20188;-77
2021/12/19 05:54:52;;;;;;;34.57;16.00;;;;;;;;;;5091336;28;20204;-76
2021/12/19 05:57:20;;;;;;;41.30;18.30;;;;;;;;;;5073218;28;20212;-76
2021/12/19 05:59:46;;;;;;;34.87;16.83;;;;;;;;;;5090461;28;20259;-76
2021/12/19 06:02:12;;;;;;;34.77;16.13;;;;;;;;;;5091171;28;20187;-77
2021/12/19 06:04:38;;;;;;;38.03;16.47;;;;;;;;;;5091003;28;20294;-77
2021/12/19 06:07:04;;;;;;;36.37;16.47;;;;;;;;;;5089791;28;20192;-77
2021/12/19 06:09:31;;;;;;;35.73;16.73;;;;;;;;;;5091212;28;20663;-77
2021/12/19 06:11:57;;;;;;;41.60;17.10;;;;;;;;;;5090943;28;20614;-77
2021/12/19 06:14:23;;;;;;;36.30;16.43;;;;;;;;;;5070552;28;20213;-76
2021/12/19 06:16:50;;;;;;;38.67;18.13;;;;;;;;;;5089354;28;20273;-77
2021/12/19 06:19:16;;;;;;;33.77;15.10;;;;;;;;;;5089584;28;20221;-77
2021/12/19 06:21:42;;;;;;;31.73;15.13;;;;;;;;;;5090612;28;20266;-77
2021/12/19 06:24:08;;;;;;;36.60;17.50;;;;;;;;;;5089447;28;20200;-77
2021/12/19 06:26:35;;;;;;;37.50;16.33;;;;;;;;;;5089429;28;20172;-77
2021/12/19 06:29:03;;;;;;;32.87;15.80;;;;;;;;;;5090571;28;20664;-76
2021/12/19 06:31:29;;;;;;;34.60;15.63;;;;;;;;;;5089895;28;20233;-77
2021/12/19 06:33:55;;;;;;;37.70;17.10;;;;;;;;;;5096004;28;20552;-77
2021/12/19 06:36:21;;;;;;;31.67;14.97;;;;;;;;;;5077048;28;20245;-77
2021/12/19 06:38:48;;;;;;;33.80;15.33;;;;;;;;;;5072720;28;20651;-77
2021/12/19 06:41:14;;;;;;;42.20;16.20;;;;;;;;;;5089362;28;20168;-77
2021/12/19 06:43:40;;;;;;;34.67;16.57;;;;;;;;;;5089428;28;20188;-76
2021/12/19 06:46:06;;;;;;;32.47;15.30;;;;;;;;;;5090519;28;20701;-77
2021/12/19 06:48:32;;;;;;;32.37;15.40;;;;;;;;;;5069957;28;20659;-76
2021/12/19 06:50:58;;;;;;;35.93;15.10;;;;;;;;;;5090199;28;20272;-75
2021/12/19 06:53:24;;;;;;;43.40;20.50;;;;;;;;;;5089957;28;20243;-77
2021/12/19 06:55:51;;;;;;;35.37;17.40;;;;;;;;;;5091115;28;20204;-76
2021/12/19 06:58:17;;;;;;;30.53;15.13;;;;;;;;;;5092934;28;20184;-77
2021/12/19 07:00:44;;;;;;;36.50;16.93;;;;;;;;;;5094519;28;20176;-77
2021/12/19 07:03:11;;;;;;;34.97;16.40;;;;;;;;;;5094080;28;20408;-77
2021/12/19 07:05:37;;;;;;;30.10;14.90;;;;;;;;;;5075995;28;20257;-76
2021/12/19 07:08:03;;;;;;;33.63;15.97;;;;;;;;;;5093487;28;20263;-77
2021/12/19 07:10:30;;;;;;;29.07;14.20;;;;;;;;;;5091992;28;20229;-77
2021/12/19 07:12:56;;;;;;;28.13;14.13;;;;;;;;;;5090625;28;20237;-76
2021/12/19 07:15:24;;;;;;;28.97;14.57;;;;;;;;;;5092404;28;20741;-76
2021/12/19 07:17:51;;;;;;;28.07;14.73;;;;;;;;;;5093620;28;20216;-77
2021/12/19 07:20:17;;;;;;;29.27;14.90;;;;;;;;;;5093626;28;20184;-76
2021/12/19 07:22:44;;;;;;;29.70;15.40;;;;;;;;;;5087557;28;20230;-77
2021/12/19 07:25:10;;;;;;;34.43;16.57;;;;;;;;;;5091840;28;20199;-78
2021/12/19 07:27:36;;;;;;;32.90;15.77;;;;;;;;;;5096199;28;20176;-78
2021/12/19 07:30:04;;;;;;;31.37;16.40;;;;;;;;;;5093287;28;20310;-77
2021/12/19 07:32:31;;;;;;;30.83;15.67;;;;;;;;;;5094273;28;20173;-78
2021/12/19 07:34:57;;;;;;;32.07;16.37;;;;;;;;;;5093528;28;20223;-79
2021/12/19 07:37:23;;;;;;;30.40;15.47;;;;;;;;;;5092481;28;20219;-79
2021/12/19 07:39:58;;;;;;;30.13;16.27;;;;;;;;;;5092817;28;20825;-78
2021/12/19 07:42:24;;;;;;;29.77;15.63;;;;;;;;;;5093529;28;20180;-77
2021/12/19 07:44:50;;;;;;;31.83;15.77;;;;;;;;;;5085784;28;20205;-77
2021/12/19 07:47:16;;;;;;;31.33;15.70;;;;;;;;;;5104062;28;20173;-77
2021/12/19 07:49:43;;;;;;;26.20;14.40;;;;;;;;;;5079222;28;20180;-78
2021/12/19 07:52:09;;;;;;;34.40;17.40;;;;;;;;;;5088461;28;20177;-78
2021/12/19 07:54:35;;;;;;;28.60;17.20;;;;;;;;;;5073759;28;20204;-77
2021/12/19 07:57:01;;;;;;;31.47;16.07;;;;;;;;;;5092665;28;20543;-78
2021/12/19 07:59:27;;;;;;;26.73;15.47;;;;;;;;;;5093224;28;20263;-78
2021/12/19 08:01:54;;;;;;;30.33;16.13;;;;;;;;;;5075496;28;20287;-78
2021/12/19 08:04:20;;;;;;;29.43;16.23;;;;;;;;;;5089651;28;20208;-78
2021/12/19 08:06:46;;;;;;;29.30;16.00;;;;;;;;;;5091462;28;20180;-78
2021/12/19 08:09:22;;;;;;;30.93;16.03;;;;;;;;;;5091519;28;20191;-78
2021/12/19 08:11:48;;;;;;;28.67;15.37;;;;;;;;;;5088507;28;20184;-78
2021/12/19 08:14:15;;;;;;;25.70;15.43;;;;;;;;;;5057196;28;20220;-78
2021/12/19 08:16:42;;;;;;;26.47;15.37;;;;;;;;;;5092179;28;20223;-78
2021/12/19 08:19:08;;;;;;;28.47;15.87;;;;;;;;;;5091313;28;20168;-78
2021/12/19 08:21:35;;;;;;;27.07;14.77;;;;;;;;;;5057566;28;20172;-78
2021/12/19 08:24:03;;;;;;;30.13;16.53;;;;;;;;;;5071450;28;20306;-77
2021/12/19 08:26:30;;;;;;;30.67;16.73;;;;;;;;;;5091472;28;20184;-77
2021/12/19 08:28:56;;;;;;;30.90;17.50;;;;;;;;;;5091076;28;20311;-78
2021/12/19 08:31:22;;;;;;;28.90;16.40;;;;;;;;;;5092051;28;21452;-78
2021/12/19 08:33:49;;;;;;;31.03;18.17;;;;;;;;;;5057315;28;20231;-78
2021/12/19 08:36:15;;;;;;;28.90;17.57;;;;;;;;;;5091057;28;20675;-78
2021/12/19 08:38:42;;;;;;;30.40;17.43;;;;;;;;;;5088323;28;20185;-77
2021/12/19 08:41:09;;;;;;;31.10;18.33;;;;;;;;;;5092633;28;20172;-78
2021/12/19 08:43:35;;;;;;;32.50;16.80;;;;;;;;;;5073922;28;20172;-77
2021/12/19 08:46:02;;;;;;;31.20;17.57;;;;;;;;;;5056565;28;20184;-76
2021/12/19 08:48:28;;;;;;;31.50;17.80;;;;;;;;;;5055077;28;20246;-76
2021/12/19 08:50:55;;;;;;;32.07;17.50;;;;;;;;;;5076571;28;20192;-76
2021/12/19 08:53:21;;;;;;;30.83;16.80;;;;;;;;;;5093797;28;20234;-76
2021/12/19 08:55:51;;;;;;;31.47;17.00;;;;;;;;;;5075718;28;20212;-77
2021/12/19 08:58:17;;;;;;;33.90;18.50;;;;;;;;;;5074191;28;20664;-77
2021/12/19 09:00:44;;;;;;;29.87;16.80;;;;;;;;;;5091315;28;20548;-76
2021/12/19 09:03:10;;;;;;;34.00;16.83;;;;;;;;;;5075080;28;20210;-77
2021/12/19 09:05:37;;;;;;;33.57;18.10;;;;;;;;;;5070977;28;20211;-77
2021/12/19 09:08:04;;;;;;;34.53;18.27;;;;;;;;;;5087350;28;20271;-77
2021/12/19 09:10:30;;;;;;;36.13;19.57;;;;;;;;;;5086241;28;20188;-77
2021/12/19 09:12:58;;;;;;;30.53;17.27;;;;;;;;;;5070645;28;20189;-77
2021/12/19 09:15:24;;;;;;;34.00;17.83;;;;;;;;;;5084606;28;20276;-77
2021/12/19 09:17:51;;;;;;;32.33;17.43;;;;;;;;;;5088305;28;20216;-76
2021/12/19 09:20:18;;;;;;;34.20;18.23;;;;;;;;;;5085186;28;21607;-77
2021/12/19 09:22:44;;;;;;;34.90;17.80;;;;;;;;;;5085630;28;20184;-80
2021/12/19 09:25:14;;;;;;;33.70;18.37;;;;;;;;;;5058905;28;20216;-77
2021/12/19 09:27:44;;;;;;;31.70;18.07;;;;;;;;;;5085787;28;20601;-77
2021/12/19 09:30:11;;;;;;;32.17;17.40;;;;;;;;;;5052320;28;20196;-77
2021/12/19 09:32:39;;;;;;;31.90;17.03;;;;;;;;;;5084515;28;20636;-77
2021/12/19 09:35:10;;;;;;;34.27;18.17;;;;;;;;;;5069433;28;20224;-84
2021/12/19 09:37:37;;;;;;;32.83;19.03;;;;;;;;;;5069328;28;20208;-77
2021/12/19 09:40:05;;;;;;;34.33;18.33;;;;;;;;;;5086326;28;20657;-78
2021/12/19 09:42:34;;;;;;;36.53;19.53;;;;;;;;;;5069006;28;20194;-76
2021/12/19 09:45:03;;;;;;;32.57;18.03;;;;;;;;;;5066491;28;20276;-77
2021/12/19 09:47:30;;;;;;;29.97;17.80;;;;;;;;;;5081571;28;20279;-77
2021/12/19 09:49:57;;;;;;;28.77;17.43;;;;;;;;;;5086746;28;20280;-77
2021/12/19 09:52:25;;;;;;;31.27;17.40;;;;;;;;;;5051549;28;20287;-77
2021/12/19 09:54:53;;;;;;;31.10;17.60;;;;;;;;;;5049652;28;20676;-77
2021/12/19 09:57:19;;;;;;;32.67;18.80;;;;;;;;;;5086207;28;20234;-77
2021/12/19 09:59:46;;;;;;;28.80;17.40;;;;;;;;;;5068819;28;20176;-77
2021/12/19 10:02:13;;;;;;;27.80;17.43;;;;;;;;;;5085982;28;20181;-77
2021/12/19 10:04:41;;;;;;;29.17;17.47;;;;;;;;;;5085390;28;20212;-78
2021/12/19 10:07:11;;;;;;;27.47;15.97;;;;;;;;;;5089107;28;20191;-77
2021/12/19 10:10:03;;;;;;;25.70;15.43;;;;;;;;;;5072550;28;20204;-77
2021/12/19 10:15:04;;;;;;;23.23;15.07;;;;;;;;;;5071370;28;20702;-77
2021/12/19 10:17:33;;;;;;;24.80;15.90;;;;;;;;;;5069660;28;20866;-77
2021/12/19 10:20:04;;;;;;;27.70;18.30;;;;;;;;;;5073746;28;20184;-76
2021/12/19 10:22:35;;;;;;;24.83;16.87;;;;;;;;;;5071722;28;20176;-77
2021/12/19 10:25:08;;;;;;;24.70;15.80;;;;;;;;;;5071059;28;20220;-78
2021/12/19 10:27:39;;;;;;;22.00;15.40;;;;;;;;;;5066938;28;20188;-76
2021/12/19 10:30:10;;;;;;;24.30;15.50;;;;;;;;;;5083091;28;20181;-76
2021/12/19 10:32:37;;;;;;;23.63;15.80;;;;;;;;;;5086062;28;20254;-76
2021/12/19 10:35:14;;;;;;;19.03;15.00;;;;;;;;;;5084618;28;20216;-77
2021/12/19 10:37:41;;;;;;;19.10;14.63;;;;;;;;;;5075299;28;20265;-76
2021/12/19 10:40:08;;;;;;;18.17;13.53;;;;;;;;;;5083502;28;20192;-77
2021/12/19 10:42:50;;;;;;;16.57;12.97;;;;;;;;;;5084033;28;20253;-77
2021/12/19 10:45:32;;;;;;;16.40;14.60;;;;;;;;;;5051590;28;20494;-77
2021/12/19 10:48:09;;;;;;;17.47;13.97;;;;;;;;;;5057359;28;20199;-78
2021/12/19 10:50:54;;;;;;;19.13;13.77;;;;;;;;;;5088331;28;20536;-80
2021/12/19 10:53:29;;;;;;;17.93;14.00;;;;;;;;;;5069113;28;20668;-77
2021/12/19 10:56:00;;;;;;;16.50;13.17;;;;;;;;;;5060043;28;20207;-80
2021/12/19 10:58:30;;;;;;;18.10;14.50;;;;;;;;;;5083999;28;20647;-80
2021/12/19 11:01:05;;;;;;;18.53;13.90;;;;;;;;;;5069174;28;20187;-77
2021/12/19 11:03:34;;;;;;;17.33;14.30;;;;;;;;;;5068432;28;20184;-79
2021/12/19 11:06:01;;;;;;;16.10;13.13;;;;;;;;;;5071821;28;20204;-79
2021/12/19 11:08:34;;;;;;;15.23;12.67;;;;;;;;;;5070375;28;20199;-80
2021/12/19 11:11:01;;;;;;;13.83;11.67;;;;;;;;;;5068754;28;20204;-79
2021/12/19 11:13:28;;;;;;;16.97;12.77;;;;;;;;;;5052642;28;20196;-79
2021/12/19 11:15:57;;;;;;;18.93;13.43;;;;;;;;;;5069316;28;20204;-76
2021/12/19 11:18:24;;;;;;;17.13;13.20;;;;;;;;;;5084230;28;20533;-76
2021/12/19 11:20:50;;;;;;;15.93;12.70;;;;;;;;;;5055620;28;20192;-75
2021/12/19 11:23:18;;;;;;;16.13;13.00;;;;;;;;;;5082771;28;20192;-75
2021/12/19 11:25:45;;;;;;;15.10;13.47;;;;;;;;;;5084140;28;20660;-74
2021/12/19 11:28:12;;;;;;;13.67;11.50;;;;;;;;;;5083756;28;20188;-75
2021/12/19 11:30:39;;;;;;;13.23;11.47;;;;;;;;;;5082283;28;20188;-75
2021/12/19 11:33:27;;;;;;;16.30;12.77;;;;;;;;;;5065675;28;20666;-74
2021/12/19 11:35:56;;;;;;;14.57;11.80;;;;;;;;;;5082765;28;20577;-75
2021/12/19 11:38:23;;;;;;;15.37;12.50;;;;;;;;;;5066216;28;20180;-75
2021/12/19 11:40:51;;;;;;;15.17;12.13;;;;;;;;;;5067142;28;20208;-75
2021/12/19 11:43:19;;;;;;;15.37;12.20;;;;;;;;;;5068600;28;20192;-74
2021/12/19 11:45:58;;;;;;;14.57;11.67;;;;;;;;;;5086975;28;20262;-75
2021/12/19 11:48:29;;;;;;;14.07;11.53;;;;;;;;;;5075067;28;20192;-75
2021/12/19 11:51:01;;;;;;;16.97;12.20;;;;;;;;;;5092132;28;20179;-74
2021/12/19 11:53:32;;;;;;;15.30;12.90;;;;;;;;;;5094526;28;20179;-75
2021/12/19 11:56:10;;;;;;;16.27;12.27;;;;;;;;;;5094447;28;20234;-79
2021/12/19 11:58:51;;;;;;;14.50;11.63;;;;;;;;;;5078139;28;20180;-75
2021/12/19 12:01:20;;;;;;;14.63;12.37;;;;;;;;;;5074572;28;20185;-76
2021/12/19 12:03:48;;;;;;;15.37;11.83;;;;;;;;;;5075931;28;20191;-76
2021/12/19 12:06:20;;;;;;;14.77;11.50;;;;;;;;;;5082512;28;20192;-76
2021/12/19 12:09:06;;;;;;;15.73;12.07;;;;;;;;;;5093743;28;20196;-75
2021/12/19 12:11:34;;;;;;;14.10;11.87;;;;;;;;;;5092670;28;20602;-75
2021/12/19 12:14:20;;;;;;;15.20;12.00;;;;;;;;;;5051589;28;20212;-75
2021/12/19 12:16:55;;;;;;;13.87;10.73;;;;;;;;;;5072844;28;20790;-75
2021/12/19 12:19:42;;;;;;;15.47;11.83;;;;;;;;;;5090141;28;20184;-75
2021/12/19 12:25:07;;;;;;;16.70;11.23;;;;;;;;;;5091976;28;20288;-76
2021/12/19 12:27:38;;;;;;;13.93;11.10;;;;;;;;;;5091075;28;20206;-75
2021/12/19 12:30:06;;;;;;;16.67;11.53;;;;;;;;;;5057146;28;20189;-76
2021/12/19 12:32:33;;;;;;;13.03;10.37;;;;;;;;;;5090924;28;20183;-75
2021/12/19 12:35:00;;;;;;;13.77;10.67;;;;;;;;;;5088554;28;20307;-75
2021/12/19 12:37:27;;;;;;;15.43;11.13;;;;;;;;;;5089750;28;20660;-74
2021/12/19 12:40:16;;;;;;;15.07;10.90;;;;;;;;;;5070021;28;20184;-77
2021/12/19 12:42:57;;;;;;;15.30;11.20;;;;;;;;;;5085570;28;20226;-76
2021/12/19 12:45:24;;;;;;;14.03;10.27;;;;;;;;;;5071208;28;20220;-76
2021/12/19 12:47:51;;;;;;;14.23;10.47;;;;;;;;;;5070649;28;20325;-76
2021/12/19 12:50:18;;;;;;;14.97;12.10;;;;;;;;;;5090699;28;20722;-76
2021/12/19 12:52:45;;;;;;;18.33;12.53;;;;;;;;;;5085880;28;20553;-75
2021/12/19 12:55:14;;;;;;;15.80;11.53;;;;;;;;;;5070052;28;20695;-76
2021/12/19 12:57:43;;;;;;;15.93;11.73;;;;;;;;;;5086278;28;20681;-76
2021/12/19 13:00:21;;;;;;;15.43;11.57;;;;;;;;;;5072132;28;20184;-75
2021/12/19 13:03:08;;;;;;;14.30;10.87;;;;;;;;;;5086289;28;20200;-76
2021/12/19 13:05:36;;;;;;;14.70;11.40;;;;;;;;;;5096077;28;20241;-75
2021/12/19 13:08:03;;;;;;;14.73;10.87;;;;;;;;;;5090265;28;20238;-76
2021/12/19 13:10:29;;;;;;;13.90;10.30;;;;;;;;;;5089780;28;20189;-80
2021/12/19 13:12:56;;;;;;;14.57;11.47;;;;;;;;;;5091261;28;20544;-77
2021/12/19 13:15:23;;;;;;;13.67;10.23;;;;;;;;;;5087928;28;20240;-76
2021/12/19 13:17:52;;;;;;;15.23;10.27;;;;;;;;;;5089564;28;20246;-76
2021/12/19 13:20:22;;;;;;;14.93;12.23;;;;;;;;;;5085814;28;20915;-77
2021/12/19 13:22:50;;;;;;;14.00;10.93;;;;;;;;;;5088595;28;20172;-75
2021/12/19 13:25:17;;;;;;;13.27;10.40;;;;;;;;;;5086340;28;20574;-77
2021/12/19 13:27:48;;;;;;;12.47;10.13;;;;;;;;;;5088895;28;20241;-76
2021/12/19 13:30:24;;;;;;;13.03;9.87;;;;;;;;;;5088870;28;21046;-76
2021/12/19 13:32:51;;;;;;;12.67;10.20;;;;;;;;;;5089014;28;20939;-76
2021/12/19 13:35:19;;;;;;;13.50;10.47;;;;;;;;;;5052542;28;20229;-76
2021/12/19 13:38:06;;;;;;;13.40;10.10;;;;;;;;;;5089025;28;20216;-76
2021/12/19 13:40:36;;;;;;;14.20;10.40;;;;;;;;;;5088918;28;20513;-77
2021/12/19 13:43:04;;;;;;;14.73;11.30;;;;;;;;;;5088034;28;20276;-79
2021/12/19 13:45:30;;;;;;;13.80;9.80;;;;;;;;;;5087557;28;20287;-80
2021/12/19 13:47:58;;;;;;;13.63;9.33;;;;;;;;;;5086110;28;20184;-83
2021/12/19 13:50:24;;;;;;;13.17;9.37;;;;;;;;;;5088130;28;20314;-75
2021/12/19 13:52:50;;;;;;;12.00;9.23;;;;;;;;;;5085741;28;20215;-75
2021/12/19 13:55:17;;;;;;;15.43;10.47;;;;;;;;;;5088108;28;20239;-76
2021/12/19 13:57:44;;;;;;;11.70;8.97;;;;;;;;;;5085781;28;20212;-76
2021/12/19 14:00:12;;;;;;;12.70;9.43;;;;;;;;;;5086769;28;20192;-75
2021/12/19 14:02:39;;;;;;;12.27;8.97;;;;;;;;;;5087105;28;20647;-75
2021/12/19 14:05:24;;;;;;;12.60;9.20;;;;;;;;;;5088424;28;20205;-76
2021/12/19 14:07:50;;;;;;;11.87;8.97;;;;;;;;;;5087551;28;20186;-75
2021/12/19 14:10:22;;;;;;;12.47;8.93;;;;;;;;;;5088349;28;20699;-76
2021/12/19 14:13:09;;;;;;;13.23;9.07;;;;;;;;;;5086997;28;20180;-76
2021/12/19 14:15:36;;;;;;;12.93;8.90;;;;;;;;;;5067087;28;20211;-78
2021/12/19 14:18:21;;;;;;;13.47;9.87;;;;;;;;;;5086792;28;20208;-80
2021/12/19 14:20:47;;;;;;;13.73;8.47;;;;;;;;;;5082926;28;20191;-81
2021/12/19 14:23:17;;;;;;;11.87;8.77;;;;;;;;;;5069073;28;20257;-86
2021/12/19 14:25:44;;;;;;;12.73;8.80;;;;;;;;;;5086163;28;20417;-82
2021/12/19 14:28:22;;;;;;;10.60;8.33;;;;;;;;;;5071926;28;20610;-83
2021/12/19 14:30:55;;;;;;;13.23;9.57;;;;;;;;;;5090255;28;20180;-81
2021/12/19 14:33:29;;;;;;;12.23;8.63;;;;;;;;;;5072545;28;20180;-82
2021/12/19 14:35:55;;;;;;;11.33;8.20;;;;;;;;;;5069944;28;20212;-83
2021/12/19 14:38:23;;;;;;;12.53;8.83;;;;;;;;;;5087056;28;20184;-81
2021/12/19 14:40:49;;;;;;;11.27;8.53;;;;;;;;;;5068753;28;20498;-81
2021/12/19 14:43:16;;;;;;;12.20;8.50;;;;;;;;;;5087195;28;20183;-81
2021/12/19 14:45:47;;;;;;;11.83;8.27;;;;;;;;;;5069223;28;20212;-83
2021/12/19 14:48:17;;;;;;;11.60;8.17;;;;;;;;;;5085604;28;20180;-80
2021/12/19 14:50:53;;;;;;;13.83;9.20;;;;;;;;;;5069387;28;20212;-82
2021/12/19 14:53:21;;;;;;;20.57;15.30;;;;;;;;;;5087599;28;20760;-80
2021/12/19 14:55:49;;;;;;;15.10;11.20;;;;;;;;;;5086678;28;20208;-82
2021/12/19 14:58:16;;;;;;;13.90;9.93;;;;;;;;;;5088394;28;20184;-80
2021/12/19 15:00:45;;;;;;;11.20;8.57;;;;;;;;;;5086225;28;20552;-80
2021/12/19 15:03:11;;;;;;;12.70;9.33;;;;;;;;;;5071034;28;20225;-80
2021/12/19 15:05:38;;;;;;;13.33;9.40;;;;;;;;;;5067812;28;20242;-80
2021/12/19 15:08:07;;;;;;;13.03;9.33;;;;;;;;;;5053498;28;20283;-80
2021/12/19 15:10:33;;;;;;;12.10;9.57;;;;;;;;;;5087556;28;20184;-85
2021/12/19 15:13:00;;;;;;;11.67;8.77;;;;;;;;;;5085542;28;20192;-81
2021/12/19 15:15:26;;;;;;;12.90;8.77;;;;;;;;;;5087403;28;20294;-82
2021/12/19 15:17:52;;;;;;;13.83;9.50;;;;;;;;;;5073483;28;20218;-82
2021/12/19 15:20:18;;;;;;;23.13;16.17;;;;;;;;;;5065904;28;20279;-81
2021/12/19 15:22:45;;;;;;;15.70;11.97;;;;;;;;;;5076039;28;20173;-82
2021/12/19 15:25:12;;;;;;;18.33;14.33;;;;;;;;;;5076299;28;20208;-82